createdAt,value
2018-06-10T00:00:48.141Z,10.23
2018-06-10T00:03:51.326Z,13.40
2018-06-10T00:06:54.483Z,15.17
2018-06-10T00:09:57.487Z,12.57
2018-06-10T00:13:00.846Z,12.57
2018-06-10T00:16:03.838Z,11.90
2018-06-10T00:19:06.986Z,13.20
2018-06-10T00:22:10.129Z,14.77
2018-06-10T00:25:13.238Z,15.53
2018-06-10T00:28:20.845Z,16.30
2018-06-10T00:31:23.864Z,19.73
2018-06-10T00:34:27.203Z,15.63
2018-06-10T00:37:32.338Z,16.23
2018-06-10T00:40:36.515Z,17.07
2018-06-10T00:43:39.585Z,16.00
2018-06-10T00:46:42.590Z,15.77
2018-06-10T00:49:45.542Z,16.63
2018-06-10T00:52:48.578Z,16.13
2018-06-10T00:55:51.610Z,17.20
2018-06-10T00:58:54.679Z,15.70
2018-06-10T01:01:57.765Z,17.50
2018-06-10T01:05:01.043Z,17.77
2018-06-10T01:08:04.328Z,17.20
2018-06-10T01:11:07.452Z,17.33
2018-06-10T01:14:10.749Z,18.27
2018-06-10T01:17:13.871Z,17.03
2018-06-10T01:20:16.966Z,18.53
2018-06-10T01:23:20.022Z,19.40
2018-06-10T01:26:28.696Z,23.10
2018-06-10T01:29:31.881Z,20.73
2018-06-10T01:32:35.091Z,23.80
2018-06-10T01:35:39.205Z,26.83
2018-06-10T01:38:43.259Z,27.27
2018-06-10T01:41:47.395Z,24.87
2018-06-10T01:44:51.687Z,28.67
2018-06-10T01:47:56.710Z,26.43
2018-06-10T01:51:00.850Z,27.60
2018-06-10T01:54:03.981Z,30.53
2018-06-10T01:57:08.085Z,31.27
2018-06-10T02:00:11.106Z,32.87
2018-06-10T02:03:14.238Z,34.00
2018-06-10T02:06:20.726Z,30.47
2018-06-10T02:09:23.872Z,35.13
2018-06-10T02:12:27.910Z,30.47
2018-06-10T02:15:35.266Z,32.00
2018-06-10T02:18:39.508Z,28.10
2018-06-10T02:21:42.644Z,28.83
2018-06-10T02:24:45.625Z,31.73
2018-06-10T02:27:49.596Z,31.13
2018-06-10T02:30:53.641Z,31.23
2018-06-10T02:33:56.807Z,32.23
2018-06-10T02:36:59.939Z,32.40
2018-06-10T02:40:08.487Z,33.03
2018-06-10T02:43:11.681Z,32.17
2018-06-10T02:46:14.750Z,33.30
2018-06-10T02:49:18.856Z,26.50
2018-06-10T02:52:27.208Z,29.37
2018-06-10T02:55:30.279Z,31.60
2018-06-10T02:58:33.269Z,29.00
2018-06-10T03:01:36.435Z,29.63
2018-06-10T03:04:39.504Z,29.23
2018-06-10T03:07:42.650Z,31.07
2018-06-10T03:10:45.773Z,30.37
2018-06-10T03:13:48.918Z,35.37
2018-06-10T03:16:52.400Z,35.40
2018-06-10T03:19:57.539Z,35.17
2018-06-10T03:23:02.250Z,32.13
2018-06-10T03:26:05.446Z,36.63
2018-06-10T03:29:08.435Z,33.00
2018-06-10T03:32:11.644Z,33.37
2018-06-10T03:35:14.782Z,32.37
2018-06-10T03:38:17.839Z,37.63
2018-06-10T03:41:20.925Z,36.27
2018-06-10T03:44:24.653Z,40.93
2018-06-10T03:47:27.817Z,36.70
2018-06-10T03:50:31.021Z,32.43
2018-06-10T03:53:35.201Z,36.70
2018-06-10T03:56:38.322Z,32.40
2018-06-10T03:59:41.570Z,36.93
2018-06-10T04:02:44.699Z,30.20
2018-06-10T04:05:53.506Z,31.30
2018-06-10T04:08:56.589Z,31.07
2018-06-10T04:11:59.865Z,30.00
2018-06-10T04:15:03.858Z,32.23
2018-06-10T04:18:07.057Z,31.00
2018-06-10T04:21:10.095Z,29.20
2018-06-10T04:24:13.424Z,29.30
2018-06-10T04:27:17.445Z,27.83
2018-06-10T04:30:21.102Z,34.40
2018-06-10T04:33:24.208Z,31.63
2018-06-10T04:36:27.219Z,26.20
2018-06-10T04:39:30.268Z,28.00
2018-06-10T04:42:33.297Z,31.70
2018-06-10T04:45:36.489Z,28.43
2018-06-10T04:48:39.457Z,32.30
2018-06-10T04:51:42.804Z,28.27
2018-06-10T04:54:45.873Z,32.27
2018-06-10T04:57:50.820Z,33.00
2018-06-10T05:00:53.862Z,26.03
2018-06-10T05:04:09.309Z,30.57
2018-06-10T05:07:12.392Z,25.13
2018-06-10T05:10:15.501Z,25.27
2018-06-10T05:13:18.778Z,26.83
2018-06-10T05:16:21.753Z,24.63
2018-06-10T05:19:25.797Z,24.13
2018-06-10T05:22:29.991Z,24.70
2018-06-10T05:25:32.971Z,23.13
2018-06-10T05:28:36.002Z,22.50
2018-06-10T05:31:39.083Z,22.53
2018-06-10T05:34:46.296Z,23.20
2018-06-10T05:37:51.353Z,25.83
2018-06-10T05:40:55.411Z,23.80
2018-06-10T05:44:00.547Z,25.67
2018-06-10T05:47:05.667Z,23.87
2018-06-10T05:50:09.664Z,22.90
2018-06-10T05:53:16.924Z,22.20
2018-06-10T05:56:23.390Z,25.50
2018-06-10T05:59:26.427Z,23.00
2018-06-10T06:02:29.614Z,28.43
2018-06-10T06:05:32.600Z,32.30
2018-06-10T06:08:41.649Z,33.60
2018-06-10T06:11:49.758Z,32.37
2018-06-10T06:14:52.849Z,30.63
2018-06-10T06:17:57.919Z,29.73
2018-06-10T06:38:30.537Z,37.93
2018-06-10T06:41:33.624Z,37.73
2018-06-10T06:44:36.618Z,37.10
2018-06-10T06:47:39.855Z,45.43
2018-06-10T06:50:44.926Z,42.90
2018-06-10T06:53:51.154Z,37.07
2018-06-10T06:56:58.236Z,50.93
2018-06-10T07:00:02.305Z,49.57
2018-06-10T07:03:05.358Z,50.37
2018-06-10T07:06:08.438Z,52.97
2018-06-10T07:09:11.523Z,40.83
2018-06-10T07:12:14.643Z,55.47
2018-06-10T07:15:17.639Z,49.17
2018-06-10T07:18:20.669Z,45.37
2018-06-10T07:21:23.750Z,39.57
2018-06-10T07:24:27.721Z,26.97
2018-06-10T07:27:31.925Z,27.67
2018-06-10T07:30:40.661Z,25.80
2018-06-10T07:33:44.813Z,24.87
2018-06-10T07:36:47.880Z,27.37
2018-06-10T07:39:51.069Z,24.73
2018-06-10T07:42:55.168Z,25.23
2018-06-10T07:45:59.133Z,21.80
2018-06-10T07:49:02.162Z,21.20
2018-06-10T07:52:06.170Z,21.13
2018-06-10T07:55:09.098Z,18.47
2018-06-10T07:58:15.431Z,16.50
2018-06-10T08:01:18.586Z,17.37
2018-06-10T08:04:21.765Z,14.87
2018-06-10T08:07:24.986Z,11.97
2018-06-10T08:10:32.750Z,10.23
2018-06-10T08:13:35.955Z,9.83
2018-06-10T08:16:38.950Z,10.80
2018-06-10T08:19:45.654Z,11.43
2018-06-10T08:22:48.665Z,11.90
2018-06-10T08:25:52.803Z,12.63
2018-06-10T08:28:57.007Z,12.07
2018-06-10T08:32:00.518Z,11.43
2018-06-10T08:35:03.657Z,11.30
2018-06-10T08:38:06.966Z,10.87
2018-06-10T08:41:10.061Z,10.33
2018-06-10T08:44:13.218Z,10.20
2018-06-10T08:47:16.277Z,10.43
2018-06-10T08:50:19.468Z,9.63
2018-06-10T08:53:22.511Z,10.67
2018-06-10T08:56:25.539Z,9.03
2018-06-10T08:59:28.673Z,8.17
2018-06-10T09:02:31.749Z,8.50
2018-06-10T09:05:34.897Z,8.27
2018-06-10T09:08:38.136Z,9.40
2018-06-10T09:11:41.106Z,9.77
2018-06-10T09:14:44.146Z,8.97
2018-06-10T09:17:49.306Z,9.63
2018-06-10T09:20:53.373Z,9.70
2018-06-10T09:23:56.446Z,9.33
2018-06-10T09:26:59.616Z,9.77
2018-06-10T09:30:02.999Z,9.97
2018-06-10T09:33:06.098Z,11.10
2018-06-10T09:36:09.376Z,12.03
2018-06-10T09:39:13.258Z,12.63
2018-06-10T09:42:27.262Z,12.17
2018-06-10T09:45:30.516Z,12.87
2018-06-10T09:48:33.641Z,13.07
2018-06-10T09:51:40.676Z,13.90
2018-06-10T09:54:43.758Z,12.43
2018-06-10T09:57:46.883Z,13.40
2018-06-10T10:00:50.069Z,11.70
2018-06-10T10:03:56.233Z,13.50
2018-06-10T10:06:59.457Z,12.80
2018-06-10T10:10:02.872Z,14.03
2018-06-10T10:13:05.988Z,13.63
2018-06-10T10:16:09.023Z,12.90
2018-06-10T10:19:12.223Z,12.27
2018-06-10T10:22:15.442Z,13.40
2018-06-10T10:25:18.546Z,13.23
2018-06-10T10:28:21.561Z,12.73
2018-06-10T10:31:24.626Z,12.53
2018-06-10T10:34:29.855Z,13.10
2018-06-10T10:37:46.130Z,12.60
2018-06-10T10:40:49.213Z,13.90
2018-06-10T10:43:52.267Z,13.30
2018-06-10T10:46:59.165Z,11.77
2018-06-10T10:50:03.220Z,12.87
2018-06-10T10:53:09.714Z,14.10
2018-06-10T10:56:18.282Z,11.40
2018-06-10T10:59:22.349Z,11.57
2018-06-10T11:02:25.462Z,11.83
2018-06-10T11:05:28.430Z,13.17
2018-06-10T11:08:33.691Z,12.17
2018-06-10T11:11:41.617Z,10.93
2018-06-10T11:14:48.023Z,11.93
2018-06-10T11:17:51.127Z,13.30
2018-06-10T11:20:54.216Z,11.77
2018-06-10T11:24:12.146Z,11.07
2018-06-10T11:27:15.396Z,10.50
2018-06-10T11:30:18.620Z,11.53
2018-06-10T11:33:21.733Z,10.50
2018-06-10T11:36:24.889Z,10.60
2018-06-10T11:39:27.892Z,11.13
2018-06-10T11:42:32.221Z,9.97
2018-06-10T11:45:35.229Z,9.53
2018-06-10T11:48:39.315Z,10.67
2018-06-10T11:51:42.537Z,8.70
2018-06-10T11:54:45.714Z,7.90
2018-06-10T11:57:48.844Z,7.47
2018-06-10T12:00:53.014Z,9.50
2018-06-10T12:03:59.917Z,9.90
2018-06-10T12:07:23.622Z,11.00
2018-06-10T12:10:32.026Z,10.07
2018-06-10T12:13:35.015Z,10.60
2018-06-10T12:16:39.263Z,12.77
2018-06-10T12:19:48.237Z,9.03
2018-06-10T12:22:51.504Z,9.17
2018-06-10T12:25:54.619Z,9.13
2018-06-10T12:28:57.746Z,8.50
2018-06-10T12:32:00.838Z,7.90
2018-06-10T12:35:04.028Z,7.57
2018-06-10T12:38:07.333Z,7.50
2018-06-10T12:41:11.573Z,7.40
2018-06-10T12:44:14.698Z,7.87
2018-06-10T12:47:21.313Z,8.50
2018-06-10T12:50:25.331Z,8.03
2018-06-10T12:53:28.535Z,9.33
2018-06-10T12:56:32.612Z,7.00
2018-06-10T12:59:36.665Z,8.23
2018-06-10T13:02:41.463Z,7.90
2018-06-10T13:05:47.850Z,6.70
2018-06-10T13:08:52.934Z,6.77
2018-06-10T13:11:56.994Z,7.57
2018-06-10T13:15:00.096Z,7.63
2018-06-10T13:18:21.012Z,8.40
2018-06-10T13:21:28.107Z,7.07
2018-06-10T13:24:33.314Z,7.87
2018-06-10T13:27:36.424Z,8.37
2018-06-10T13:30:39.497Z,7.50
2018-06-10T13:33:42.747Z,8.00
2018-06-10T13:36:45.762Z,7.53
2018-06-10T13:39:50.927Z,8.17
2018-06-10T13:43:08.268Z,7.73
2018-06-10T13:46:11.527Z,7.60
2018-06-10T13:49:22.130Z,7.10
2018-06-10T13:52:32.683Z,7.53
2018-06-10T13:55:35.798Z,8.30
2018-06-10T13:58:43.622Z,8.43
2018-06-10T14:01:48.795Z,7.60
2018-06-10T14:04:51.871Z,7.87
2018-06-10T14:08:00.152Z,10.00
2018-06-10T14:11:07.886Z,9.40
2018-06-10T14:14:10.916Z,9.27
2018-06-10T14:17:14.955Z,10.40
2018-06-10T14:20:21.394Z,10.30
2018-06-10T14:23:24.486Z,10.90
2018-06-10T14:26:28.684Z,10.17
2018-06-10T14:29:34.044Z,10.00
2018-06-10T14:32:43.190Z,9.37
2018-06-10T14:35:46.234Z,9.07
2018-06-10T14:38:52.574Z,10.90
2018-06-10T14:41:55.622Z,10.63
2018-06-10T14:44:59.560Z,10.10
2018-06-10T14:48:04.640Z,8.77
2018-06-10T14:51:11.031Z,9.00
2018-06-10T14:54:14.237Z,10.20
2018-06-10T14:57:36.746Z,9.43
2018-06-10T15:00:40.168Z,9.53
2018-06-10T15:03:44.422Z,8.90
2018-06-10T15:06:54.916Z,9.70
2018-06-10T15:09:57.998Z,8.77
2018-06-10T15:13:06.027Z,9.57
2018-06-10T15:16:09.042Z,9.40
2018-06-10T15:19:17.183Z,10.00
2018-06-10T15:22:20.189Z,9.27
2018-06-10T15:25:23.158Z,10.17
2018-06-10T15:28:26.207Z,10.13
2018-06-10T15:31:32.661Z,10.47
2018-06-10T15:34:35.928Z,10.90
2018-06-10T15:37:40.031Z,10.87
2018-06-10T15:40:43.022Z,11.20
2018-06-10T15:43:46.112Z,10.37
2018-06-10T15:46:49.044Z,10.40
2018-06-10T15:49:53.047Z,12.83
2018-06-10T15:52:58.145Z,11.50
2018-06-10T15:56:02.402Z,13.63
2018-06-10T15:59:05.780Z,14.30
2018-06-10T16:02:09.965Z,16.93
2018-06-10T16:05:14.018Z,15.90
2018-06-10T16:08:17.100Z,15.17
2018-06-10T16:11:20.141Z,16.77
2018-06-10T16:14:23.324Z,16.13
2018-06-10T16:17:27.586Z,15.77
2018-06-10T16:20:40.935Z,15.33
2018-06-10T16:23:45.037Z,15.40
2018-06-10T16:26:49.097Z,15.50
2018-06-10T16:29:52.339Z,14.80
2018-06-10T16:33:02.774Z,14.93
2018-06-10T16:36:06.368Z,13.30
2018-06-10T16:39:09.891Z,13.83
2018-06-10T16:42:13.205Z,15.10
2018-06-10T16:45:18.271Z,16.60
2018-06-10T16:48:29.420Z,16.03
2018-06-10T16:51:32.446Z,17.23
2018-06-10T16:54:35.480Z,17.40
2018-06-10T16:57:38.673Z,19.70
2018-06-10T17:00:41.823Z,21.43
2018-06-10T17:03:47.024Z,23.87
2018-06-10T17:07:01.523Z,18.93
2018-06-10T17:10:05.626Z,18.30
2018-06-10T17:13:09.069Z,20.77
2018-06-10T17:16:13.245Z,21.63
2018-06-10T17:19:16.299Z,21.00
2018-06-10T17:22:19.490Z,18.57
2018-06-10T17:25:22.821Z,19.93
2018-06-10T17:28:25.796Z,21.63
2018-06-10T17:31:28.969Z,19.17
2018-06-10T17:34:32.041Z,19.63
2018-06-10T17:37:35.096Z,19.47
2018-06-10T17:40:41.203Z,19.83
2018-06-10T17:43:48.220Z,19.40
2018-06-10T17:46:51.255Z,21.27
2018-06-10T17:49:54.391Z,18.07
2018-06-10T17:52:59.352Z,18.40
2018-06-10T17:56:07.311Z,19.33
2018-06-10T17:59:33.867Z,19.50
2018-06-10T18:02:36.950Z,21.13
2018-06-10T18:05:41.142Z,22.70
2018-06-10T18:08:48.889Z,24.63
2018-06-10T18:11:51.918Z,21.93
2018-06-10T18:14:54.924Z,20.13
2018-06-10T18:18:01.686Z,23.30
2018-06-10T18:21:09.604Z,23.13
2018-06-10T18:24:12.720Z,24.23
2018-06-10T18:27:16.197Z,27.77
2018-06-10T18:30:27.137Z,21.47
2018-06-10T18:33:35.131Z,20.87
2018-06-10T18:36:38.573Z,22.07
2018-06-10T18:39:42.687Z,22.17
2018-06-10T18:42:46.807Z,24.93
2018-06-10T18:45:50.035Z,22.83
2018-06-10T18:48:53.156Z,23.83
2018-06-10T18:51:56.294Z,23.90
2018-06-10T18:54:59.303Z,23.43
2018-06-10T18:58:02.405Z,25.30
2018-06-10T19:01:05.574Z,25.60
2018-06-10T19:04:08.771Z,26.50
2018-06-10T19:07:11.816Z,26.10
2018-06-10T19:10:14.817Z,22.57
2018-06-10T19:13:18.909Z,26.10
2018-06-10T19:16:21.892Z,23.80
2018-06-10T19:19:24.993Z,25.53
2018-06-10T19:22:32.540Z,25.47
2018-06-10T19:25:35.664Z,27.13
2018-06-10T19:28:38.682Z,25.93
2018-06-10T19:31:42.799Z,27.33
2018-06-10T19:34:45.980Z,26.97
2018-06-10T19:37:49.010Z,25.10
2018-06-10T19:40:53.132Z,25.63
2018-06-10T19:43:56.244Z,26.73
2018-06-10T19:46:59.335Z,27.97
2018-06-10T19:50:02.444Z,27.93
2018-06-10T19:53:05.953Z,26.47
2018-06-10T19:56:09.066Z,26.57
2018-06-10T19:59:12.222Z,26.83
2018-06-10T20:02:21.037Z,26.40
2018-06-10T20:05:24.160Z,26.60
2018-06-10T20:08:27.218Z,27.10
2018-06-10T20:11:30.410Z,31.87
2018-06-10T20:14:38.493Z,28.33
2018-06-10T20:17:45.363Z,27.93
2018-06-10T20:20:49.845Z,29.10
2018-06-10T20:23:54.014Z,29.70
2018-06-10T20:26:59.034Z,30.47
2018-06-10T20:30:02.434Z,25.07
2018-06-10T20:33:06.517Z,26.50
2018-06-10T20:36:10.059Z,26.67
2018-06-10T20:39:14.345Z,32.87
2018-06-10T20:42:17.531Z,29.27
2018-06-10T20:45:20.841Z,34.47
2018-06-10T20:48:24.163Z,32.73
2018-06-10T20:51:28.390Z,36.07
2018-06-10T20:54:31.575Z,35.07
2018-06-10T20:57:39.157Z,36.47
2018-06-10T21:00:44.549Z,35.33
2018-06-10T21:03:51.710Z,39.47
2018-06-10T21:06:55.477Z,36.60
2018-06-10T21:09:59.485Z,32.30
2018-06-10T21:13:33.836Z,36.43
2018-06-10T21:16:37.042Z,34.13
2018-06-10T21:19:40.360Z,36.83
2018-06-10T21:22:43.534Z,35.27
2018-06-10T21:25:49.022Z,33.50
2018-06-10T21:29:02.809Z,33.07
2018-06-10T21:32:08.033Z,31.77
2018-06-10T21:35:11.655Z,31.57
2018-06-10T21:38:17.432Z,30.33
2018-06-10T21:49:37.897Z,38.13
2018-06-10T21:52:50.210Z,37.47
2018-06-10T21:55:53.957Z,37.50
2018-06-10T21:59:01.186Z,39.20
2018-06-10T22:13:59.119Z,34.83
2018-06-10T22:17:02.346Z,31.27
2018-06-10T22:20:05.610Z,27.73
2018-06-10T22:23:08.924Z,25.57
2018-06-10T22:26:12.120Z,25.47
2018-06-10T22:29:15.722Z,23.70
2018-06-10T22:32:18.865Z,19.53
2018-06-10T22:35:23.278Z,18.13
2018-06-10T22:38:26.431Z,17.37
2018-06-10T22:41:29.581Z,18.73
2018-06-10T22:44:32.904Z,17.73
2018-06-10T22:47:36.144Z,18.70
2018-06-10T22:50:39.342Z,19.07
2018-06-10T22:54:03.753Z,19.00
2018-06-10T22:57:07.075Z,18.13
2018-06-10T23:00:10.227Z,18.13
2018-06-10T23:03:14.508Z,18.37
2018-06-10T23:06:18.321Z,18.03
2018-06-10T23:09:21.688Z,19.23
2018-06-10T23:12:24.973Z,17.90
2018-06-10T23:15:28.248Z,17.73
2018-06-10T23:18:32.572Z,18.60
2018-06-10T23:21:35.821Z,18.53
2018-06-10T23:24:39.104Z,18.33
2018-06-10T23:27:42.341Z,17.53
2018-06-10T23:30:45.705Z,17.90
2018-06-10T23:33:48.937Z,19.23
2018-06-10T23:36:52.222Z,18.33
2018-06-10T23:39:56.526Z,17.13
2018-06-10T23:42:59.801Z,18.77
2018-06-10T23:46:05.774Z,18.80
2018-06-10T23:49:09.106Z,16.53
2018-06-10T23:52:12.183Z,17.47
2018-06-10T23:55:15.332Z,18.07
2018-06-10T23:58:18.477Z,19.17
